Lampasas, TX (76550)

2:01 PM CDT on April 21, 2015 (GMT -0500)
Lampasas | | Change Station
CLOSE
Current Station
Airport
Location: Lampasas,
Elevation: 1214 ft
Nearby Weather Stations

Elev 1214 ft 31.11 °N, 98.20 °W | Updated 6 minutes ago

Scattered Clouds
Scattered Clouds
76 °F
Feels Like 76 °F
N
9
Wind Variable Wind from South

Today
High -- | Low -- °F
--% Chance of Precip.
Yesterday
High -- | Low -- °F
Precip. -- in
6:58 AM 8:04 PM
Waxing Crescent, 12% visible
Pressure 29.95 in
Visibility 10.0 miles
Clouds Scattered Clouds 3700 ft
Dew Point 56 °F
Humidity 51%
Rainfall 0.00 in
Snow Depth Not available.
UV 9 out of 12
Pollen 8.70 out of 12
Air Quality Not available.
Flu Activity Local Activity
METAR KLZZ 211855Z AUTO 17008KT 10SM SCT037 24/14 A2995 RMK AO2 T02420135

More Conditions Fewer Conditions

Pressure 29.95 in
Visibility 10.0 miles
Clouds Scattered Clouds 3700 ft
Dew Point 56 °F
Humidity 51%
Rainfall 0.00 in
Snow Depth Not available.
UV 9 out of 12
Pollen 8.70 out of 12
Air Quality Not available.
Flu Activity Local Activity
METAR KLZZ 211855Z AUTO 17008KT 10SM SCT037 24/14 A2995 RMK AO2 T02420135

More Conditions Fewer Conditions

Nowcast | as of 1:21 PM CDT on April 21, 2015

Scattered showers and thunderstorms extending from Gainesville to Sulphur Springs are moving east at 30 mph. Locations generally east of Interstate 35 E and north of Interstate 20 will have the potential to see additional showers and storms this afternoon. Rainfall totals from a few hundredths to a quarter of an inch will be possible in these locations through 4 PM.

×

10-Day Weather Forecast

Almanac

Astronomy

Apr. 21, 2015 Rise Set
Actual Time
Civil Twilight
Nautical Twilight
Astronomical Twilight
Moon
Length of Visible Light
Length of Day
Tomorrow will be .
, % of the Moon is Illuminated

Today's Extremes

State Highs State Lows

Community

WunderPhotos

Upload Photos

1,815,489 photos uploaded!

WunderBlogs® & News

Nearby

Air Quality

  Air Quality AQ Index Pollutant
Not available.

Snow Depth

Station Depth Elevation

Earthquake Activity

City Distance Mag. Time & Date
Minimum magnitude displayed is 2.5.

Coastal Water Temperatures

Place Temperature

Stations

Nearby Weather Stations

Station Location Temp. Windchill Dew Point Humidity Wind Precip. Elev Updated Type